createdAt,value
2019-04-22T00:02:08.937Z,88.30
2019-04-22T00:04:49.881Z,88.50
2019-04-22T00:07:30.743Z,88.70
2019-04-22T00:10:09.661Z,89.20
2019-04-22T00:12:37.238Z,89.50
2019-04-22T00:15:01.925Z,89.30
2019-04-22T00:17:40.187Z,89.00
2019-04-22T00:22:32.687Z,88.70
2019-04-22T00:25:10.395Z,88.80
2019-04-22T00:27:42.829Z,89.20
2019-04-22T00:30:15.505Z,89.40
2019-04-22T00:32:41.754Z,89.50
2019-04-22T00:35:13.262Z,89.40
2019-04-22T00:37:49.283Z,89.30
2019-04-22T00:40:25.269Z,89.50
2019-04-22T00:42:47.612Z,89.50
2019-04-22T00:45:19.338Z,89.60
2019-04-22T00:47:43.774Z,90.00
2019-04-22T00:53:15.256Z,90.20
2019-04-22T00:57:54.237Z,90.20
2019-04-22T01:00:27.785Z,90.20
2019-04-22T01:02:59.254Z,90.20
2019-04-22T01:05:27.761Z,90.10
2019-04-22T01:08:04.385Z,90.00
2019-04-22T01:10:25.862Z,90.20
2019-04-22T01:12:58.399Z,90.30
2019-04-22T01:15:30.401Z,90.40
2019-04-22T01:17:57.831Z,90.50
2019-04-22T01:20:54.306Z,90.70
2019-04-22T01:23:00.673Z,90.70
2019-04-22T01:25:26.392Z,90.80
2019-04-22T01:27:53.074Z,90.80
2019-04-22T01:30:20.661Z,90.70
2019-04-22T01:32:43.973Z,90.90
2019-04-22T01:35:26.434Z,91.00
2019-04-22T01:37:54.419Z,91.00
2019-04-22T01:40:40.499Z,91.00
2019-04-22T01:43:08.673Z,90.90
2019-04-22T01:45:41.421Z,91.10
2019-04-22T01:48:11.162Z,91.10
2019-04-22T01:50:41.075Z,90.60
2019-04-22T01:53:12.687Z,90.70
2019-04-22T01:55:45.510Z,90.80
2019-04-22T01:58:08.217Z,90.90
2019-04-22T02:06:03.634Z,91.30
2019-04-22T02:08:37.916Z,91.40
2019-04-22T02:11:00.760Z,91.40
2019-04-22T02:13:30.709Z,91.50
2019-04-22T02:16:23.118Z,91.60
2019-04-22T02:18:39.319Z,91.60
2019-04-22T02:21:01.710Z,91.70
2019-04-22T02:28:45.800Z,91.90
2019-04-22T02:34:01.289Z,91.90
2019-04-22T02:36:30.041Z,91.80
2019-04-22T02:41:22.725Z,91.80
2019-04-22T03:04:09.395Z,92.30
2019-04-22T03:06:34.948Z,92.30
2019-04-22T03:14:04.735Z,92.50
2019-04-22T03:16:37.521Z,92.40
2019-04-22T03:19:16.964Z,92.20
2019-04-22T03:21:44.178Z,92.20
2019-04-22T03:26:45.347Z,92.40
2019-04-22T03:29:32.988Z,92.60
2019-04-22T03:35:09.782Z,92.90
2019-04-22T03:44:32.218Z,93.00
2019-04-22T03:49:38.935Z,93.10
2019-04-22T03:59:31.800Z,92.90
2019-04-22T04:02:10.629Z,92.90
2019-04-22T04:04:35.981Z,93.00
2019-04-22T04:07:11.562Z,93.00
2019-04-22T04:12:03.580Z,93.20
2019-04-22T04:14:38.040Z,93.00
2019-04-22T04:17:20.690Z,92.90
2019-04-22T04:25:08.365Z,92.40
2019-04-22T04:32:30.731Z,92.40
2019-04-22T04:37:28.214Z,92.30
2019-04-22T04:42:30.007Z,92.40
2019-04-22T04:44:59.215Z,92.30
2019-04-22T04:47:29.506Z,92.10
2019-04-22T04:54:48.423Z,91.90
2019-04-22T04:57:23.472Z,91.90
2019-04-22T05:02:20.454Z,91.70
2019-04-22T05:09:54.974Z,91.00
2019-04-22T05:12:39.575Z,90.90
2019-04-22T05:14:55.017Z,90.90
2019-04-22T05:17:25.637Z,90.60
2019-04-22T05:19:59.048Z,90.20
2019-04-22T05:22:21.380Z,89.70
2019-04-22T05:24:51.919Z,89.10
2019-04-22T05:27:29.133Z,88.40
2019-04-22T05:30:08.817Z,88.00
2019-04-22T05:32:24.527Z,87.30
2019-04-22T05:34:52.902Z,87.10
2019-04-22T05:40:06.606Z,86.70
2019-04-22T05:42:34.285Z,86.10
2019-04-22T05:44:55.447Z,86.10
2019-04-22T05:47:30.753Z,86.40
2019-04-22T05:49:56.308Z,85.70
2019-04-22T05:52:26.617Z,84.70
2019-04-22T05:55:06.606Z,82.50
2019-04-22T05:57:31.048Z,81.80
2019-04-22T06:00:01.239Z,81.20
2019-04-22T06:02:39.769Z,81.70
2019-04-22T06:05:06.649Z,81.60
2019-04-22T06:07:32.448Z,81.10
2019-04-22T06:10:06.792Z,80.60
2019-04-22T06:12:26.514Z,79.90
2019-04-22T06:15:05.062Z,77.80
2019-04-22T06:17:39.019Z,73.80
2019-04-22T06:20:10.489Z,61.60
2019-04-22T06:22:48.664Z,50.90
2019-04-22T06:25:39.112Z,44.70
2019-04-22T06:27:42.973Z,41.90
2019-04-22T06:30:15.647Z,40.60
2019-04-22T06:32:42.175Z,38.10
2019-04-22T06:35:24.985Z,37.50
2019-04-22T06:38:06.789Z,36.00
2019-04-22T06:40:20.794Z,35.40
2019-04-22T06:42:52.585Z,34.00
2019-04-22T06:45:18.912Z,33.00
2019-04-22T06:47:59.146Z,32.50
2019-04-22T06:50:16.625Z,32.10
2019-04-22T06:52:54.553Z,31.90
2019-04-22T06:55:23.275Z,31.60
2019-04-22T06:57:45.270Z,30.30
2019-04-22T07:00:22.544Z,30.20
2019-04-22T07:03:13.271Z,30.30
2019-04-22T07:05:21.990Z,30.90
2019-04-22T07:07:53.425Z,30.70
2019-04-22T07:12:53.942Z,29.90
2019-04-22T07:15:35.755Z,29.40
2019-04-22T07:17:58.294Z,29.00
2019-04-22T07:20:24.160Z,29.20
2019-04-22T07:22:59.953Z,29.10
2019-04-22T07:25:24.995Z,29.20
2019-04-22T07:28:13.825Z,29.40
2019-04-22T07:30:28.090Z,27.70
2019-04-22T07:33:11.554Z,27.90
2019-04-22T07:35:40.175Z,27.80
2019-04-22T07:37:54.265Z,27.70
2019-04-22T07:40:37.289Z,26.80
2019-04-22T07:43:04.329Z,26.70
2019-04-22T07:45:39.160Z,27.10
2019-04-22T07:48:11.259Z,27.20
2019-04-22T07:53:05.446Z,27.90
2019-04-22T07:55:32.615Z,27.70
2019-04-22T07:58:05.434Z,27.20
2019-04-22T08:04:00.051Z,27.10
2019-04-22T08:06:17.252Z,27.70
2019-04-22T08:08:47.052Z,27.10
2019-04-22T08:11:31.141Z,26.80
2019-04-22T08:13:49.822Z,26.70
2019-04-22T08:16:16.357Z,26.90
2019-04-22T08:18:45.835Z,27.00
2019-04-22T08:21:16.724Z,26.40
2019-04-22T08:23:50.991Z,26.50
2019-04-22T08:26:19.533Z,26.30
2019-04-22T08:28:51.792Z,25.70
2019-04-22T08:31:20.522Z,25.80
2019-04-22T08:34:00.332Z,26.40
2019-04-22T08:36:30.527Z,26.10
2019-04-22T08:41:32.701Z,25.90
2019-04-22T08:44:02.331Z,26.00
2019-04-22T08:54:11.875Z,27.20
2019-04-22T08:56:32.450Z,27.00
2019-04-22T08:59:12.257Z,27.00
2019-04-22T09:01:29.646Z,26.60
2019-04-22T09:04:02.555Z,26.40
2019-04-22T09:16:37.713Z,26.20
2019-04-22T09:19:10.799Z,25.70
2019-04-22T09:26:36.181Z,25.70
2019-04-22T09:29:14.314Z,25.80
2019-04-22T09:31:39.153Z,26.40
2019-04-22T09:34:06.524Z,26.10
2019-04-22T09:36:44.001Z,25.70
2019-04-22T09:39:09.261Z,24.90
2019-04-22T09:41:43.042Z,26.00
2019-04-22T09:44:08.059Z,25.80
2019-04-22T09:46:45.532Z,25.50
2019-04-22T09:51:46.168Z,26.50
2019-04-22T09:54:26.570Z,26.80
2019-04-22T09:56:44.486Z,26.70
2019-04-22T09:59:18.894Z,26.60
2019-04-22T10:01:40.958Z,26.80
2019-04-22T10:04:14.316Z,25.90
2019-04-22T10:06:41.062Z,26.40
2019-04-22T10:09:38.096Z,25.30
2019-04-22T10:11:47.074Z,24.60
2019-04-22T10:14:19.035Z,24.20
2019-04-22T10:17:03.279Z,24.00
2019-04-22T10:19:18.409Z,24.00
2019-04-22T10:21:49.984Z,24.40
2019-04-22T10:24:30.125Z,24.70
2019-04-22T10:27:02.145Z,26.00
2019-04-22T10:29:16.991Z,25.70
2019-04-22T10:31:51.075Z,26.50
2019-04-22T10:34:09.293Z,26.60
2019-04-22T10:36:27.787Z,27.20
2019-04-22T10:38:58.040Z,27.70
2019-04-22T10:41:28.460Z,28.10
2019-04-22T10:43:57.423Z,27.90
2019-04-22T10:46:26.394Z,28.90
2019-04-22T10:48:55.376Z,28.40
2019-04-22T10:51:24.484Z,29.00
2019-04-22T10:53:53.455Z,29.20
2019-04-22T10:56:23.050Z,28.90
2019-04-22T10:58:52.941Z,29.30
2019-04-22T11:01:23.282Z,28.90
2019-04-22T11:03:53.117Z,28.50
2019-04-22T11:06:23.171Z,29.00
2019-04-22T11:08:57.492Z,28.70
2019-04-22T11:11:34.691Z,28.70
2019-04-22T11:13:53.760Z,28.70
2019-04-22T11:16:23.385Z,29.40
2019-04-22T11:18:53.571Z,29.10
2019-04-22T11:21:23.293Z,29.40
2019-04-22T11:23:52.539Z,29.40
2019-04-22T11:26:21.969Z,29.30
2019-04-22T11:28:51.742Z,29.10
2019-04-22T11:31:20.855Z,29.10
2019-04-22T11:33:50.289Z,29.20
2019-04-22T11:36:19.940Z,29.60
2019-04-22T11:38:52.993Z,29.80
2019-04-22T11:41:19.554Z,29.70
2019-04-22T11:43:49.427Z,29.50
2019-04-22T11:46:18.536Z,29.70
2019-04-22T11:48:47.717Z,29.70
2019-04-22T11:51:18.018Z,29.50
2019-04-22T11:53:47.139Z,29.40
2019-04-22T11:56:16.830Z,29.80
2019-04-22T11:58:46.967Z,29.80
2019-04-22T12:01:16.921Z,29.80
2019-04-22T12:03:46.342Z,30.30
2019-04-22T12:06:15.788Z,29.90
2019-04-22T12:08:45.931Z,30.50
2019-04-22T12:11:16.675Z,30.50
2019-04-22T12:13:46.297Z,30.10
2019-04-22T12:16:17.010Z,30.40
2019-04-22T12:18:47.235Z,30.60
2019-04-22T12:21:17.121Z,31.00
2019-04-22T12:23:47.216Z,30.50
2019-04-22T12:26:19.001Z,30.20
2019-04-22T12:28:47.130Z,30.50
2019-04-22T12:31:17.487Z,30.80
2019-04-22T12:33:47.660Z,30.00
2019-04-22T12:36:16.558Z,30.50
2019-04-22T12:38:45.423Z,31.00
2019-04-22T12:41:15.922Z,30.20
2019-04-22T12:43:45.073Z,30.20
2019-04-22T12:46:14.477Z,30.00
2019-04-22T12:48:43.765Z,30.30
2019-04-22T12:51:15.210Z,30.20
2019-04-22T12:53:44.588Z,30.30
2019-04-22T12:56:15.391Z,30.20
2019-04-22T12:58:45.597Z,30.60
2019-04-22T13:01:15.120Z,30.00
2019-04-22T13:07:13.685Z,30.30
2019-04-22T13:09:43.265Z,30.50
2019-04-22T13:12:13.142Z,30.70
2019-04-22T13:14:43.346Z,30.90
2019-04-22T13:17:14.015Z,30.80
2019-04-22T13:19:44.337Z,30.50
2019-04-22T13:22:14.640Z,31.00
2019-04-22T13:24:43.892Z,30.70
2019-04-22T13:27:13.014Z,30.10
2019-04-22T13:29:43.384Z,30.20
2019-04-22T13:32:13.175Z,30.40
2019-04-22T13:34:46.664Z,30.70
2019-04-22T13:37:12.912Z,30.50
2019-04-22T13:39:42.884Z,30.00
2019-04-22T13:42:17.604Z,30.00
2019-04-22T13:44:44.050Z,29.80
2019-04-22T13:47:30.802Z,29.90
2019-04-22T13:50:17.676Z,30.00
2019-04-22T13:52:46.346Z,30.20
2019-04-22T13:55:15.948Z,30.00
2019-04-22T13:57:33.173Z,30.00
2019-04-22T13:59:50.708Z,30.20
2019-04-22T14:02:33.126Z,30.30
2019-04-22T14:05:02.012Z,30.40
2019-04-22T14:07:30.858Z,30.20
2019-04-22T14:10:00.201Z,29.90
2019-04-22T14:12:30.487Z,29.60
2019-04-22T14:15:00.238Z,29.90
2019-04-22T14:17:29.438Z,30.00
2019-04-22T14:19:58.474Z,29.80
2019-04-22T14:22:28.369Z,29.90
2019-04-22T14:24:58.688Z,29.50
2019-04-22T14:27:37.886Z,29.60
2019-04-22T14:29:59.789Z,29.40
2019-04-22T14:32:31.697Z,30.50
2019-04-22T14:35:00.675Z,29.90
2019-04-22T14:37:29.933Z,30.50
2019-04-22T14:40:00.127Z,30.00
2019-04-22T14:42:51.788Z,29.60
2019-04-22T14:48:01.140Z,30.30
2019-04-22T14:50:22.378Z,29.60
2019-04-22T14:52:52.343Z,29.60
2019-04-22T14:55:11.347Z,29.80
2019-04-22T14:57:35.770Z,29.50
2019-04-22T15:00:08.121Z,29.60
2019-04-22T15:02:39.528Z,29.50
2019-04-22T15:05:10.116Z,29.50
2019-04-22T15:07:39.463Z,30.00
2019-04-22T15:10:10.143Z,30.00
2019-04-22T15:12:45.731Z,29.80
2019-04-22T15:15:29.263Z,29.70
2019-04-22T15:18:06.077Z,29.60
2019-04-22T15:20:54.265Z,29.70
2019-04-22T15:23:24.659Z,30.00
2019-04-22T15:25:54.745Z,29.60
2019-04-22T15:28:23.896Z,31.10
2019-04-22T15:30:53.259Z,32.00
2019-04-22T15:33:23.403Z,32.50
2019-04-22T15:35:53.567Z,33.00
2019-04-22T15:38:24.222Z,33.30
2019-04-22T15:40:54.511Z,33.20
2019-04-22T15:43:27.957Z,33.40
2019-04-22T15:45:54.960Z,33.30
2019-04-22T15:48:25.058Z,33.30
2019-04-22T15:50:54.966Z,33.00
2019-04-22T15:53:25.288Z,33.30
2019-04-22T15:55:54.716Z,33.40
2019-04-22T15:58:23.943Z,33.30
2019-04-22T16:01:03.960Z,33.60
2019-04-22T16:03:24.740Z,34.10
2019-04-22T16:05:54.401Z,34.50
2019-04-22T16:08:24.747Z,34.80
2019-04-22T16:10:53.825Z,35.10
2019-04-22T16:13:25.536Z,35.40
2019-04-22T16:15:54.727Z,35.70
2019-04-22T16:18:24.336Z,35.90
2019-04-22T16:20:54.414Z,36.20
2019-04-22T16:23:29.606Z,36.90
2019-04-22T16:26:16.166Z,37.10
2019-04-22T16:28:45.203Z,36.50
2019-04-22T16:31:15.419Z,36.60
2019-04-22T16:33:47.674Z,37.30
2019-04-22T16:36:16.501Z,36.80
2019-04-22T16:38:46.785Z,37.00
2019-04-22T16:41:17.059Z,37.00
2019-04-22T16:43:46.714Z,37.60
2019-04-22T16:46:15.963Z,38.20
2019-04-22T16:48:45.461Z,37.80
2019-04-22T16:51:15.967Z,37.90
2019-04-22T16:53:45.225Z,38.60
2019-04-22T16:56:15.185Z,38.30
2019-04-22T16:58:44.208Z,38.20
2019-04-22T17:01:16.515Z,38.30
2019-04-22T17:04:02.733Z,38.50
2019-04-22T17:06:33.286Z,38.50
2019-04-22T17:09:02.660Z,39.30
2019-04-22T17:11:31.840Z,39.20
2019-04-22T17:14:01.349Z,39.00
2019-04-22T17:16:30.673Z,39.20
2019-04-22T17:19:00.544Z,39.10
2019-04-22T17:21:29.963Z,39.80
2019-04-22T17:23:59.400Z,40.20
2019-04-22T17:26:28.642Z,40.30
2019-04-22T17:28:59.529Z,41.20
2019-04-22T17:31:28.974Z,40.10
2019-04-22T17:33:58.995Z,41.50
2019-04-22T17:36:28.049Z,42.60
2019-04-22T17:39:13.142Z,43.10
2019-04-22T17:41:45.089Z,43.40
2019-04-22T17:44:27.394Z,43.50
2019-04-22T17:46:48.341Z,45.30
2019-04-22T17:49:31.590Z,45.20
2019-04-22T17:52:16.891Z,44.00
2019-04-22T17:54:49.381Z,44.30
2019-04-22T17:57:19.296Z,45.10
2019-04-22T17:59:46.711Z,45.60
2019-04-22T18:02:21.386Z,44.30
2019-04-22T18:04:40.169Z,44.70
2019-04-22T18:10:32.458Z,48.40
2019-04-22T18:13:08.796Z,47.20
2019-04-22T18:15:30.730Z,47.70
2019-04-22T18:18:08.731Z,49.20
2019-04-22T18:20:22.617Z,50.30
2019-04-22T18:22:52.498Z,50.80
2019-04-22T18:25:26.843Z,52.50
2019-04-22T18:28:10.449Z,51.90
2019-04-22T18:30:24.294Z,52.40
2019-04-22T18:33:02.760Z,50.30
2019-04-22T18:35:33.847Z,51.40
2019-04-22T18:38:12.363Z,51.00
2019-04-22T18:40:37.074Z,53.10
2019-04-22T18:43:10.437Z,53.30
2019-04-22T18:48:02.887Z,55.70
2019-04-22T18:50:45.205Z,56.10
2019-04-22T18:53:40.328Z,57.00
2019-04-22T18:56:13.875Z,57.00
2019-04-22T18:58:36.069Z,56.70
2019-04-22T19:00:51.288Z,57.70
2019-04-22T19:03:27.406Z,58.60
2019-04-22T19:06:27.930Z,58.20
2019-04-22T19:08:45.576Z,57.90
2019-04-22T19:11:27.013Z,57.80
2019-04-22T19:16:25.541Z,59.20
2019-04-22T19:18:50.225Z,59.60
2019-04-22T19:21:16.189Z,60.10
2019-04-22T19:23:52.244Z,61.30
2019-04-22T19:26:28.822Z,59.70
2019-04-22T19:28:57.195Z,60.10
2019-04-22T19:31:34.925Z,61.20
2019-04-22T19:33:53.862Z,63.10
2019-04-22T19:36:20.423Z,64.50
2019-04-22T19:38:50.066Z,65.40
2019-04-22T19:41:24.058Z,66.30
2019-04-22T19:44:00.459Z,67.40
2019-04-22T19:46:20.966Z,68.60
2019-04-22T19:48:56.464Z,68.90
2019-04-22T19:51:32.013Z,69.10
2019-04-22T19:53:56.100Z,69.20
2019-04-22T19:56:21.107Z,69.90
2019-04-22T19:58:52.634Z,70.30
2019-04-22T20:01:27.325Z,70.20
2019-04-22T20:04:13.600Z,71.20
2019-04-22T20:06:37.797Z,70.40
2019-04-22T20:09:13.994Z,70.10
2019-04-22T20:11:41.297Z,70.70
2019-04-22T20:14:13.753Z,71.30
2019-04-22T20:16:46.625Z,71.40
2019-04-22T20:19:19.533Z,72.30
2019-04-22T20:21:40.608Z,72.50
2019-04-22T20:24:02.186Z,72.70
2019-04-22T20:26:46.953Z,72.60
2019-04-22T20:29:24.294Z,72.50
2019-04-22T20:31:46.954Z,72.70
2019-04-22T20:34:22.318Z,72.70
2019-04-22T20:36:58.099Z,73.20
2019-04-22T20:39:15.687Z,73.80
2019-04-22T20:41:41.036Z,74.40
2019-04-22T20:44:28.151Z,75.20
2019-04-22T20:46:44.813Z,75.30
2019-04-22T20:49:19.961Z,75.60
2019-04-22T20:52:00.219Z,76.00
2019-04-22T20:54:17.822Z,76.40
2019-04-22T20:56:48.221Z,76.10
2019-04-22T20:59:19.381Z,76.20
2019-04-22T21:01:52.567Z,76.40
2019-04-22T21:04:09.098Z,76.20
2019-04-22T21:06:47.330Z,76.30
2019-04-22T21:09:22.126Z,75.80
2019-04-22T21:11:49.447Z,75.20
2019-04-22T21:14:21.608Z,74.90
2019-04-22T21:16:56.340Z,74.90
2019-04-22T21:19:33.108Z,75.20
2019-04-22T21:21:57.793Z,75.80
2019-04-22T21:24:23.752Z,76.20
2019-04-22T21:26:57.081Z,76.40
2019-04-22T21:29:20.306Z,77.00
2019-04-22T21:31:54.870Z,77.40
2019-04-22T21:34:23.421Z,77.60
2019-04-22T21:37:09.212Z,77.40
2019-04-22T21:39:26.336Z,77.40
2019-04-22T21:42:03.350Z,77.80
2019-04-22T21:44:30.713Z,78.10
2019-04-22T21:47:10.457Z,79.00
2019-04-22T21:49:35.887Z,78.40
2019-04-22T21:52:06.468Z,78.10
2019-04-22T21:54:45.424Z,78.10
2019-04-22T21:57:18.912Z,78.90
2019-04-22T21:59:47.151Z,78.60
2019-04-22T22:02:25.248Z,78.90
2019-04-22T22:04:48.893Z,78.80
2019-04-22T22:07:09.861Z,78.60
2019-04-22T22:09:53.954Z,78.70
2019-04-22T22:12:17.382Z,79.00
2019-04-22T22:15:03.133Z,79.60
2019-04-22T22:17:23.303Z,79.50
2019-04-22T22:19:54.486Z,79.30
2019-04-22T22:22:42.371Z,79.20
2019-04-22T22:24:58.340Z,79.20
2019-04-22T22:27:25.095Z,79.00
2019-04-22T22:30:06.618Z,78.30
2019-04-22T22:32:32.056Z,78.70
2019-04-22T22:35:00.442Z,78.30
2019-04-22T22:37:16.999Z,78.70
2019-04-22T22:39:48.114Z,78.90
2019-04-22T22:42:10.886Z,79.60
2019-04-22T22:44:44.877Z,79.70
2019-04-22T22:47:29.791Z,80.30
2019-04-22T22:50:07.691Z,80.70
2019-04-22T22:55:06.908Z,79.80
2019-04-22T22:57:56.660Z,79.30
2019-04-22T23:00:07.987Z,79.60
2019-04-22T23:02:36.269Z,79.50
2019-04-22T23:05:09.623Z,79.20
2019-04-22T23:07:44.132Z,80.30
2019-04-22T23:10:31.693Z,80.90
2019-04-22T23:13:01.510Z,81.40
2019-04-22T23:15:40.511Z,82.00
2019-04-22T23:17:54.056Z,81.70
2019-04-22T23:20:30.256Z,80.90
2019-04-22T23:23:14.317Z,81.00
2019-04-22T23:25:44.155Z,81.10
2019-04-22T23:28:16.068Z,81.40
2019-04-22T23:30:56.782Z,81.20
2019-04-22T23:33:54.642Z,80.90
2019-04-22T23:36:25.142Z,81.00
2019-04-22T23:39:14.118Z,80.40
2019-04-22T23:41:47.567Z,80.10
2019-04-22T23:44:15.986Z,79.70
2019-04-22T23:46:38.010Z,79.70
2019-04-22T23:49:08.854Z,81.00
2019-04-22T23:51:51.208Z,80.30
2019-04-22T23:54:13.196Z,79.60
2019-04-22T23:56:39.715Z,79.90
2019-04-22T23:59:23.300Z,79.60
